createdAt,value
2018-05-23T07:00:06.352Z,85
2018-05-23T07:00:56.411Z,42.6
2018-05-23T07:01:46.483Z,42.8
2018-05-23T07:02:36.819Z,42.9
2018-05-23T07:06:46.889Z,85
2018-05-23T07:07:36.638Z,44
2018-05-23T07:08:27.005Z,44.1
2018-05-23T07:09:17.376Z,44.3
2018-05-23T07:10:07.132Z,44.5
2018-05-23T07:13:27.379Z,45.1
2018-05-23T07:14:17.715Z,45.3
2018-05-23T07:15:07.590Z,45.4
2018-05-23T07:15:57.864Z,45.5
2018-05-23T07:16:47.632Z,45.7
2018-05-23T07:17:37.989Z,45.8
2018-05-23T07:18:28.053Z,46
2018-05-23T07:19:18.108Z,46.1
2018-05-23T07:20:08.201Z,46.3
2018-05-23T07:20:58.261Z,46.4
2018-05-23T07:21:48.408Z,46.6
2018-05-23T07:22:38.375Z,46.7
2018-05-23T07:23:28.430Z,46.8
2018-05-23T07:24:18.508Z,46.9
2018-05-23T07:25:08.570Z,47.1
2018-05-23T07:25:58.996Z,47.2
2018-05-23T07:26:48.698Z,47.3
2018-05-23T07:27:38.766Z,47.4
2018-05-23T07:28:28.824Z,47.5
2018-05-23T07:29:18.621Z,47.6
2018-05-23T07:30:08.952Z,47.8
2018-05-23T07:30:59.022Z,47.9
2018-05-23T07:31:49.337Z,48.1
2018-05-23T07:32:39.162Z,48.2
2018-05-23T07:33:29.209Z,48.3
2018-05-23T07:34:19.354Z,48.4
2018-05-23T07:35:09.343Z,48.6
2018-05-23T07:35:59.402Z,48.7
2018-05-23T07:36:49.469Z,48.9
2018-05-23T07:37:39.539Z,49
2018-05-23T07:38:29.954Z,49.2
2018-05-23T07:39:19.658Z,49.3
2018-05-23T07:40:09.459Z,49.4
2018-05-23T07:40:59.804Z,49.6
2018-05-23T07:41:49.869Z,49.8
2018-05-23T07:42:39.924Z,49.9
2018-05-23T07:43:29.718Z,50.1
2018-05-23T07:44:19.761Z,50.3
2018-05-23T07:45:10.111Z,50.4
2018-05-23T07:46:00.037Z,50.7
2018-05-23T07:46:50.241Z,50.8
2018-05-23T07:47:39.744Z,51
2018-05-23T07:48:30.370Z,51.1
2018-05-23T07:49:20.434Z,51.3
2018-05-23T07:50:10.512Z,51.4
2018-05-23T07:51:00.565Z,51.5
2018-05-23T07:51:50.636Z,51.6
2018-05-23T07:52:40.408Z,51.8
2018-05-23T07:53:30.753Z,52
2018-05-23T07:54:20.541Z,52.1
2018-05-23T07:55:10.889Z,52.3
2018-05-23T07:56:00.957Z,52.4
2018-05-23T07:56:51.041Z,52.6
2018-05-23T07:57:41.087Z,52.8
2018-05-23T07:58:30.864Z,52.9
2018-05-23T07:59:21.205Z,53.1
2018-05-23T08:00:10.993Z,53.3
2018-05-23T08:01:01.348Z,53.4
2018-05-23T08:01:51.418Z,53.5
2018-05-23T08:02:41.469Z,53.6
2018-05-23T08:03:31.530Z,53.6
2018-05-23T08:04:21.616Z,53.7
2018-05-23T08:05:11.694Z,53.8
2018-05-23T08:06:01.459Z,53.9
2018-05-23T08:06:51.803Z,54
2018-05-23T08:07:41.878Z,54.1
2018-05-23T08:08:31.918Z,54.3
2018-05-23T08:09:21.986Z,54.4
2018-05-23T08:10:12.050Z,54.6
2018-05-23T08:11:02.125Z,54.8
2018-05-23T08:11:52.175Z,54.9
2018-05-23T08:12:42.264Z,55.1
2018-05-23T08:13:32.309Z,55.3
2018-05-23T08:14:22.374Z,55.4
2018-05-23T08:15:12.443Z,55.5
2018-05-23T08:16:02.507Z,55.6
2018-05-23T08:16:52.312Z,55.7
2018-05-23T08:17:42.630Z,55.8
2018-05-23T08:18:32.421Z,55.9
2018-05-23T08:19:22.492Z,56.1
2018-05-23T08:20:12.898Z,56.3
2018-05-23T08:21:02.917Z,56.4
2018-05-23T08:21:52.952Z,56.6
2018-05-23T08:22:43.035Z,56.7
2018-05-23T08:23:33.102Z,56.7
2018-05-23T08:24:23.086Z,56.7
2018-05-23T08:25:12.937Z,56.7
2018-05-23T08:26:03.282Z,56.8
2018-05-23T08:26:53.359Z,56.7
2018-05-23T08:27:43.404Z,56.6
2018-05-23T08:28:33.474Z,56.6
2018-05-23T08:29:23.557Z,56.5
2018-05-23T08:30:13.603Z,56.5
2018-05-23T08:31:03.661Z,56.5
2018-05-23T08:31:53.732Z,56.6
2018-05-23T08:32:43.788Z,56.6
2018-05-23T08:33:33.583Z,56.7
2018-05-23T08:34:23.917Z,56.7
2018-05-23T08:35:13.985Z,56.8
2018-05-23T08:36:03.792Z,56.9
2018-05-23T08:36:54.115Z,56.9
2018-05-23T08:37:44.177Z,56.9
2018-05-23T08:38:34.242Z,56.8
2018-05-23T08:39:24.305Z,56.7
2018-05-23T08:40:14.382Z,56.6
2018-05-23T08:41:04.153Z,56.6
2018-05-23T08:41:54.498Z,56.6
2018-05-23T08:42:44.563Z,56.5
2018-05-23T08:43:34.634Z,56.4
2018-05-23T08:44:24.701Z,56.4
2018-05-23T08:45:14.857Z,56.3
2018-05-23T08:46:05.099Z,56.3
2018-05-23T08:46:54.617Z,56.3
2018-05-23T08:47:44.953Z,56.3
2018-05-23T08:48:35.022Z,56.3
2018-05-23T08:49:24.806Z,56.3
2018-05-23T08:50:15.147Z,56.4
2018-05-23T08:51:05.216Z,56.4
2018-05-23T08:51:55.314Z,56.5
2018-05-23T08:52:45.352Z,56.6
2018-05-23T08:53:35.140Z,56.8
2018-05-23T08:54:25.486Z,56.9
2018-05-23T08:55:15.558Z,57
2018-05-23T08:56:05.608Z,57.1
2018-05-23T08:56:55.663Z,57.3
2018-05-23T08:57:45.732Z,57.4
2018-05-23T08:58:35.240Z,57.5
2018-05-23T08:59:25.855Z,57.6
2018-05-23T09:00:15.926Z,57.7
2018-05-23T09:01:05.987Z,57.7
2018-05-23T09:01:56.047Z,57.7
2018-05-23T09:03:36.185Z,57.9
2018-05-23T09:04:26.274Z,58.1
2018-05-23T09:05:16.320Z,58.2
2018-05-23T09:06:06.366Z,58.3
2018-05-23T09:06:56.440Z,58.4
2018-05-23T09:07:46.530Z,58.4
2018-05-23T09:08:36.576Z,58.4
2018-05-23T09:09:26.646Z,58.4
2018-05-23T09:10:16.699Z,58.5
2018-05-23T09:11:06.779Z,58.5
2018-05-23T09:11:56.833Z,58.4
2018-05-23T09:12:46.635Z,58.4
2018-05-23T09:13:36.386Z,58.4
2018-05-23T09:14:26.758Z,58.5
2018-05-23T09:15:17.101Z,58.5
2018-05-23T09:16:07.019Z,58.5
2018-05-23T09:18:37.346Z,58.6
2018-05-23T09:19:27.430Z,58.8
2018-05-23T09:20:17.488Z,58.9
2018-05-23T09:21:07.547Z,59
2018-05-23T09:21:57.612Z,59.2
2018-05-23T09:22:47.674Z,59.3
2018-05-23T09:23:37.747Z,59.4
2018-05-23T09:24:27.797Z,59.4
2018-05-23T09:25:17.654Z,59.4
2018-05-23T09:26:07.927Z,59.4
2018-05-23T09:26:57.712Z,59.4
2018-05-23T09:27:47.797Z,59.4
2018-05-23T09:28:38.114Z,59.3
2018-05-23T09:29:28.197Z,59.3
2018-05-23T09:30:18.260Z,59.1
2018-05-23T09:31:08.055Z,59.1
2018-05-23T09:31:58.409Z,59.1
2018-05-23T09:32:48.439Z,59
2018-05-23T09:33:38.506Z,59
2018-05-23T09:34:28.576Z,59
2018-05-23T09:35:18.649Z,58.9
2018-05-23T09:36:08.704Z,58.9
2018-05-23T09:36:58.768Z,58.8
2018-05-23T09:37:48.562Z,58.7
2018-05-23T09:38:38.886Z,58.7
2018-05-23T09:39:28.962Z,58.6
2018-05-23T09:40:19.028Z,58.6
2018-05-23T09:57:50.398Z,60.1
2018-05-23T09:58:40.446Z,60.1
2018-05-23T09:59:30.503Z,60.1
2018-05-23T10:00:20.568Z,60.3
2018-05-23T10:01:10.646Z,60.4
2018-05-23T10:02:00.789Z,60.5
2018-05-23T10:02:50.759Z,60.6
2018-05-23T10:03:40.830Z,60.7
2018-05-23T10:04:30.889Z,60.8
2018-05-23T10:05:20.954Z,60.8
2018-05-23T10:06:11.028Z,61
2018-05-23T10:07:00.805Z,61.2
2018-05-23T10:07:50.969Z,61.3
2018-05-23T10:08:41.217Z,61.4
2018-05-23T10:09:31.015Z,61.6
2018-05-23T10:10:21.344Z,61.8
2018-05-23T10:11:11.418Z,61.9
2018-05-23T10:12:01.485Z,62.1
2018-05-23T10:12:51.526Z,62.1
2018-05-23T10:13:41.336Z,62.2
2018-05-23T10:14:31.670Z,62.3
2018-05-23T10:15:21.730Z,62.4
2018-05-23T10:16:11.794Z,62.6
2018-05-23T10:17:01.868Z,62.6
2018-05-23T10:17:51.944Z,62.8
2018-05-23T10:18:42.020Z,62.9
2018-05-23T10:19:32.054Z,63
2018-05-23T10:20:22.116Z,63.1
2018-05-23T10:21:12.189Z,63.2
2018-05-23T10:22:02.254Z,63.3
2018-05-23T10:22:52.036Z,63.4
2018-05-23T10:23:42.114Z,63.5
2018-05-23T10:24:32.449Z,63.6
2018-05-23T10:25:22.514Z,63.6
2018-05-23T10:26:12.654Z,63.7
2018-05-23T10:27:02.654Z,63.8
2018-05-23T10:27:52.704Z,63.9
2018-05-23T10:28:42.486Z,64
2018-05-23T10:29:32.840Z,64.1
2018-05-23T10:30:22.919Z,64.1
2018-05-23T10:31:12.684Z,64.2
2018-05-23T10:32:02.746Z,64.3
2018-05-23T10:32:52.842Z,64.3
2018-05-23T10:33:43.164Z,64.4
2018-05-23T10:34:32.946Z,64.5
2018-05-23T10:35:23.302Z,64.6
2018-05-23T10:36:13.098Z,64.7
2018-05-23T10:37:03.462Z,64.7
2018-05-23T10:37:53.499Z,64.8
2018-05-23T10:38:43.549Z,64.8
2018-05-23T10:39:33.629Z,64.9
2018-05-23T10:40:23.708Z,65
2018-05-23T10:41:13.462Z,65.1
2018-05-23T10:42:03.540Z,65.2
2018-05-23T10:42:53.890Z,65.3
2018-05-23T10:43:43.671Z,65.4
2018-05-23T10:44:33.733Z,65.4
2018-05-23T10:45:24.082Z,65.5
2018-05-23T10:46:14.383Z,65.6
2018-05-23T10:47:03.934Z,65.7
2018-05-23T10:47:53.985Z,65.8
2018-05-23T10:48:44.328Z,65.8
2018-05-23T10:49:34.400Z,65.9
2018-05-23T10:50:24.464Z,65.9
2018-05-23T10:51:14.527Z,66.1
2018-05-23T10:52:04.892Z,66.1
2018-05-23T10:52:54.378Z,66.2
2018-05-23T10:53:44.727Z,66.3
2018-05-23T10:54:34.815Z,66.3
2018-05-23T10:55:24.858Z,66.4
2018-05-23T10:56:14.661Z,66.4
2018-05-23T10:57:05.275Z,66.5
2018-05-23T10:57:55.091Z,66.6
2018-05-23T10:58:45.147Z,66.6
2018-05-23T10:59:35.185Z,66.7
2018-05-23T11:00:24.978Z,66.8
2018-05-23T11:01:15.036Z,66.9
2018-05-23T11:02:05.387Z,66.9
2018-05-23T11:02:55.231Z,67
2018-05-23T11:03:45.518Z,67.1
2018-05-23T11:04:35.568Z,67.1
2018-05-23T11:05:25.655Z,67.3
2018-05-23T11:06:15.708Z,67.3
2018-05-23T11:07:05.485Z,67.4
2018-05-23T11:07:55.912Z,67.4
2018-05-23T11:08:45.900Z,67.4
2018-05-23T11:09:35.975Z,67.6
2018-05-23T11:10:26.044Z,67.7
2018-05-23T11:11:16.095Z,67.8
2018-05-23T11:12:05.881Z,67.8
2018-05-23T11:12:56.231Z,67.8
2018-05-23T11:13:46.298Z,67.9
2018-05-23T11:14:36.082Z,68
2018-05-23T11:15:26.421Z,68.1
2018-05-23T11:16:16.487Z,68.1
2018-05-23T11:17:06.553Z,68.2
2018-05-23T11:17:56.612Z,68.3
2018-05-23T11:18:46.408Z,68.3
2018-05-23T11:19:36.751Z,68.4
2018-05-23T11:20:26.832Z,68.4
2018-05-23T11:21:16.881Z,68.5
2018-05-23T11:22:06.938Z,68.6
2018-05-23T11:22:57.005Z,68.6
2018-05-23T11:23:47.152Z,68.6
2018-05-23T11:24:36.887Z,68.7
2018-05-23T11:25:26.642Z,68.8
2018-05-23T11:26:17.279Z,68.8
2018-05-23T11:27:06.780Z,68.9
2018-05-23T11:27:56.831Z,68.9
2018-05-23T11:28:47.177Z,69
2018-05-23T11:29:37.295Z,69.1
2018-05-23T11:30:27.329Z,69.1
2018-05-23T11:31:17.393Z,69.1
2018-05-23T11:32:07.725Z,69.2
2018-05-23T11:32:57.526Z,69.3
2018-05-23T11:33:47.887Z,69.3
2018-05-23T11:34:37.367Z,69.3
2018-05-23T11:35:28.011Z,69.3
2018-05-23T11:36:17.785Z,69.3
2018-05-23T11:37:08.145Z,69.4
2018-05-23T11:37:58.187Z,69.4
2018-05-23T11:38:47.978Z,69.5
2018-05-23T11:39:38.035Z,69.6
2018-05-23T11:40:28.398Z,69.6
2018-05-23T11:41:18.053Z,69.7
2018-05-23T11:42:08.250Z,69.8
2018-05-23T11:42:58.104Z,69.8
2018-05-23T11:43:48.074Z,69.8
2018-05-23T11:44:38.235Z,69.9
2018-05-23T11:45:28.881Z,69.9
2018-05-23T11:46:18.280Z,70
2018-05-23T11:47:08.921Z,70.1
2018-05-23T11:47:58.406Z,70.1
2018-05-23T11:48:49.029Z,70.1
2018-05-23T11:49:38.521Z,70.1
2018-05-23T11:50:28.597Z,70.2
2018-05-23T11:51:18.960Z,70.3
2018-05-23T11:52:09.160Z,70.3
2018-05-23T11:52:59.357Z,70.3
2018-05-23T11:53:49.164Z,70.3
2018-05-23T11:54:39.265Z,70.4
2018-05-23T11:55:29.284Z,70.4
2018-05-23T11:56:19.621Z,70.4
2018-05-23T11:57:09.686Z,70.5
2018-05-23T11:57:59.469Z,70.6
2018-05-23T11:58:49.825Z,70.6
2018-05-23T11:59:39.905Z,70.6
2018-05-23T12:00:29.686Z,70.6
2018-05-23T12:01:19.457Z,70.7
2018-05-23T12:02:10.097Z,70.7
2018-05-23T12:02:59.876Z,70.8
2018-05-23T12:03:50.258Z,70.8
2018-05-23T12:04:40.017Z,70.9
2018-05-23T12:05:30.424Z,70.9
2018-05-23T12:06:20.456Z,70.9
2018-05-23T12:07:09.905Z,70.9
2018-05-23T12:08:00.268Z,71
2018-05-23T12:08:50.119Z,71.1
2018-05-23T12:09:40.383Z,71.1
2018-05-23T12:10:30.521Z,71.1
2018-05-23T12:11:20.818Z,71.2
2018-05-23T12:12:10.576Z,71.2
2018-05-23T12:13:00.954Z,71.3
2018-05-23T12:13:50.735Z,71.3
2018-05-23T12:14:41.073Z,71.2
2018-05-23T12:15:31.137Z,71.2
2018-05-23T12:16:21.200Z,71.1
2018-05-23T12:17:11.265Z,71
2018-05-23T12:18:01.330Z,70.9
2018-05-23T12:18:50.915Z,70.8
2018-05-23T12:19:41.040Z,70.8
2018-05-23T12:20:31.533Z,70.8
2018-05-23T12:21:21.600Z,70.8
2018-05-23T12:22:11.358Z,70.8
2018-05-23T12:23:01.151Z,70.8
2018-05-23T12:23:51.246Z,70.8
2018-05-23T12:24:41.168Z,70.8
2018-05-23T12:25:31.912Z,70.8
2018-05-23T12:26:21.975Z,70.8
2018-05-23T12:27:11.772Z,70.8
2018-05-23T12:28:02.154Z,70.8
2018-05-23T12:28:51.614Z,70.8
2018-05-23T12:29:42.255Z,70.9
2018-05-23T12:30:32.302Z,70.9
2018-05-23T12:31:22.101Z,70.9
2018-05-23T12:32:12.247Z,71.1
2018-05-23T12:33:01.935Z,71.1
2018-05-23T12:33:52.592Z,71.3
2018-05-23T12:34:42.172Z,71.3
2018-05-23T12:35:32.729Z,71.4
2018-05-23T12:36:22.480Z,71.4
2018-05-23T12:37:12.359Z,71.5
2018-05-23T12:38:02.892Z,71.6
2018-05-23T12:38:52.993Z,71.6
2018-05-23T12:39:43.053Z,71.6
2018-05-23T12:40:33.113Z,71.8
2018-05-23T12:41:23.180Z,71.8
2018-05-23T12:42:12.954Z,71.8
2018-05-23T12:43:03.316Z,71.8
2018-05-23T12:43:53.078Z,71.9
2018-05-23T12:44:43.418Z,71.9
2018-05-23T12:45:33.496Z,71.9
2018-05-23T12:46:23.277Z,72
2018-05-23T12:47:13.337Z,72
2018-05-23T12:48:03.680Z,72.1
2018-05-23T12:48:53.183Z,72.1
2018-05-23T12:49:43.846Z,72.1
2018-05-23T12:50:33.600Z,72.1
2018-05-23T12:51:23.672Z,72.1
2018-05-23T12:52:14.019Z,72
2018-05-23T12:53:03.506Z,71.9
2018-05-23T12:53:54.153Z,71.9
2018-05-23T12:54:43.925Z,71.9
2018-05-23T12:55:34.077Z,71.9
2018-05-23T12:56:24.338Z,71.9
2018-05-23T12:57:14.111Z,71.9
2018-05-23T12:58:04.198Z,71.8
2018-05-23T12:58:54.555Z,71.7
2018-05-23T12:59:44.609Z,71.6
2018-05-23T13:00:34.195Z,71.7
2018-05-23T13:01:24.455Z,71.6
2018-05-23T13:02:14.540Z,71.4
2018-05-23T13:03:04.858Z,71.2
2018-05-23T13:03:54.443Z,70.9
2018-05-23T13:04:44.429Z,70.7
2018-05-23T13:05:35.065Z,70.4
2018-05-23T13:06:25.129Z,70.3
2018-05-23T13:07:14.905Z,70
2018-05-23T13:08:04.685Z,69.8
2018-05-23T13:08:55.311Z,69.6
2018-05-23T13:09:44.817Z,69.4
2018-05-23T13:10:35.457Z,69.3
2018-05-23T13:11:25.252Z,69.1
2018-05-23T13:12:15.602Z,68.9
2018-05-23T13:13:05.662Z,68.8
